createdAt,value
2022-08-19T00:02:06.027Z,13.30
2022-08-19T00:04:37.964Z,15.00
2022-08-19T00:07:08.289Z,20.50
2022-08-19T00:09:37.281Z,18.40
2022-08-19T00:12:06.106Z,15.60
2022-08-19T00:14:34.761Z,16.00
2022-08-19T00:17:04.623Z,16.90
2022-08-19T00:19:34.861Z,14.50
2022-08-19T00:24:33.391Z,16.80
2022-08-19T00:27:25.748Z,19.60
2022-08-19T00:29:52.963Z,16.50
2022-08-19T00:32:22.460Z,19.80
2022-08-19T00:34:56.307Z,13.10
2022-08-19T00:37:27.461Z,17.10
2022-08-19T00:39:57.163Z,16.70
2022-08-19T00:42:30.015Z,18.20
2022-08-19T00:44:59.095Z,14.40
2022-08-19T00:47:28.112Z,18.30
2022-08-19T00:49:59.661Z,16.50
2022-08-19T00:52:34.863Z,17.60
2022-08-19T00:55:07.870Z,17.10
2022-08-19T00:57:41.397Z,21.60
2022-08-19T01:00:16.504Z,15.50
2022-08-19T01:02:45.493Z,21.60
2022-08-19T01:05:28.933Z,19.10
2022-08-19T01:07:59.663Z,19.10
2022-08-19T01:10:36.702Z,27.30
2022-08-19T01:13:06.503Z,19.00
2022-08-19T01:15:42.209Z,17.00
2022-08-19T01:18:13.988Z,18.90
2022-08-19T01:20:44.194Z,19.30
2022-08-19T01:23:14.459Z,18.90
2022-08-19T01:25:49.031Z,22.00
2022-08-19T01:28:21.833Z,18.80
2022-08-19T01:31:07.898Z,24.50
2022-08-19T01:33:36.839Z,19.10
2022-08-19T01:36:33.994Z,20.80
2022-08-19T01:39:07.221Z,21.50
2022-08-19T01:41:36.652Z,17.00
2022-08-19T01:44:18.159Z,23.00
2022-08-19T01:46:50.006Z,24.70
2022-08-19T01:49:21.457Z,23.10
2022-08-19T01:51:51.023Z,20.00
2022-08-19T01:54:23.047Z,16.90
2022-08-19T01:57:08.477Z,25.30
2022-08-19T01:59:37.811Z,23.30
2022-08-19T02:02:09.819Z,23.50
2022-08-19T02:04:42.208Z,21.20
2022-08-19T02:07:11.598Z,18.00
2022-08-19T02:09:40.446Z,21.10
2022-08-19T02:12:10.197Z,22.10
2022-08-19T02:14:39.087Z,18.20
2022-08-19T02:17:08.328Z,24.30
2022-08-19T02:19:38.999Z,18.90
2022-08-19T02:22:09.955Z,20.80
2022-08-19T02:24:40.377Z,17.30
2022-08-19T02:27:08.971Z,23.60
2022-08-19T02:29:38.415Z,19.00
2022-08-19T02:32:07.082Z,19.50
2022-08-19T02:34:36.467Z,21.10
2022-08-19T02:37:05.652Z,17.40
2022-08-19T02:39:34.175Z,20.60
2022-08-19T02:42:03.692Z,19.80
2022-08-19T02:44:32.955Z,19.00
2022-08-19T02:47:01.672Z,28.50
2022-08-19T02:49:34.722Z,21.40
2022-08-19T02:52:04.528Z,19.60
2022-08-19T02:54:33.522Z,21.00
2022-08-19T02:57:02.074Z,20.00
2022-08-19T02:59:34.421Z,24.90
2022-08-19T03:02:03.188Z,20.30
2022-08-19T03:04:32.101Z,21.70
2022-08-19T03:07:11.148Z,23.50
2022-08-19T03:09:40.528Z,27.60
2022-08-19T03:14:39.266Z,19.40
2022-08-19T03:17:09.345Z,19.70
2022-08-19T03:19:40.505Z,23.10
2022-08-19T03:22:09.298Z,20.30
2022-08-19T03:24:38.592Z,21.40
2022-08-19T03:27:08.405Z,23.50
2022-08-19T03:29:43.113Z,20.80
2022-08-19T03:32:32.181Z,27.90
2022-08-19T03:35:02.454Z,23.10
2022-08-19T03:37:31.295Z,20.90
2022-08-19T03:40:00.434Z,23.80
2022-08-19T03:42:38.780Z,21.20
2022-08-19T03:45:19.273Z,23.30
2022-08-19T03:47:48.628Z,26.50
2022-08-19T03:50:17.591Z,19.60
2022-08-19T03:52:52.528Z,30.50
2022-08-19T03:55:21.273Z,22.00
2022-08-19T03:57:49.915Z,19.40
2022-08-19T04:00:19.269Z,22.80
2022-08-19T04:02:58.627Z,33.00
2022-08-19T04:05:30.739Z,26.90
2022-08-19T04:08:00.538Z,25.60
2022-08-19T04:10:29.755Z,18.60
2022-08-19T04:12:59.005Z,28.80
2022-08-19T04:15:28.916Z,22.00
2022-08-19T04:17:57.490Z,22.30
2022-08-19T04:20:26.588Z,23.00
2022-08-19T04:22:55.802Z,18.70
2022-08-19T04:25:24.371Z,19.60
2022-08-19T04:27:53.149Z,17.50
2022-08-19T04:30:23.882Z,19.50
2022-08-19T04:32:52.535Z,17.00
2022-08-19T04:35:24.792Z,21.40
2022-08-19T04:37:53.937Z,19.30
2022-08-19T04:40:41.668Z,21.50
2022-08-19T04:43:15.891Z,21.50
2022-08-19T04:45:46.433Z,20.90
2022-08-19T04:48:26.933Z,20.40
2022-08-19T04:50:59.232Z,19.80
2022-08-19T04:53:34.647Z,17.20
2022-08-19T04:56:11.292Z,19.20
2022-08-19T04:58:44.874Z,19.10
2022-08-19T05:01:15.908Z,20.80
2022-08-19T05:03:45.243Z,24.10
2022-08-19T05:06:17.115Z,18.90
2022-08-19T05:08:46.379Z,20.10
2022-08-19T05:11:19.542Z,16.20
2022-08-19T05:13:50.595Z,13.50
2022-08-19T05:16:22.673Z,16.00
2022-08-19T05:19:10.493Z,13.80
2022-08-19T05:22:00.272Z,11.80
2022-08-19T05:24:29.770Z,14.60
2022-08-19T05:26:59.931Z,13.60
2022-08-19T05:29:36.229Z,14.90
2022-08-19T05:32:10.742Z,14.90
2022-08-19T05:34:40.029Z,21.80
2022-08-19T05:37:10.070Z,26.90
2022-08-19T05:39:40.189Z,21.30
2022-08-19T05:44:45.177Z,22.90
2022-08-19T05:47:16.208Z,19.40
2022-08-19T05:49:44.949Z,19.70
2022-08-19T05:52:18.960Z,14.00
2022-08-19T05:54:50.924Z,10.80
2022-08-19T05:57:21.069Z,10.80
2022-08-19T05:59:57.916Z,8.50
2022-08-19T06:02:28.941Z,11.70
2022-08-19T06:04:58.056Z,17.20
2022-08-19T06:07:26.729Z,7.40
2022-08-19T06:10:01.014Z,9.60
2022-08-19T06:12:35.593Z,15.90
2022-08-19T06:15:08.947Z,12.90
2022-08-19T06:17:37.605Z,10.40
2022-08-19T06:20:13.521Z,13.00
2022-08-19T06:22:44.541Z,46.10
2022-08-19T06:25:15.824Z,10.20
2022-08-19T06:28:11.412Z,14.40
2022-08-19T06:30:34.743Z,13.40
2022-08-19T06:33:03.939Z,15.30
2022-08-19T06:35:32.631Z,7.50
2022-08-19T06:38:06.605Z,7.30
2022-08-19T06:40:36.919Z,7.70
2022-08-19T06:43:09.433Z,9.40
2022-08-19T06:45:55.095Z,8.00
2022-08-19T06:48:36.606Z,9.50
2022-08-19T06:51:12.564Z,10.90
2022-08-19T06:53:41.236Z,13.50
2022-08-19T06:56:10.741Z,15.90
2022-08-19T06:58:39.695Z,12.60
2022-08-19T07:01:09.857Z,8.70
2022-08-19T07:03:40.547Z,11.10
2022-08-19T07:06:32.524Z,10.30
2022-08-19T07:09:04.640Z,11.90
2022-08-19T07:11:34.225Z,9.50
2022-08-19T07:14:04.848Z,7.30
2022-08-19T07:16:34.037Z,8.50
2022-08-19T07:21:44.827Z,7.20
2022-08-19T07:24:13.729Z,8.90
2022-08-19T07:26:44.153Z,7.30
2022-08-19T07:29:13.784Z,10.10
2022-08-19T07:31:43.419Z,7.10
2022-08-19T07:34:14.681Z,12.00
2022-08-19T07:36:44.710Z,10.50
2022-08-19T07:39:17.944Z,9.10
2022-08-19T07:41:48.373Z,8.50
2022-08-19T07:44:18.089Z,13.90
2022-08-19T07:46:53.158Z,8.30
2022-08-19T07:49:22.941Z,7.90
2022-08-19T07:54:23.375Z,14.60
2022-08-19T07:56:52.416Z,9.80
2022-08-19T07:59:23.032Z,10.80
2022-08-19T08:01:52.491Z,9.70
2022-08-19T08:07:31.437Z,7.80
2022-08-19T08:10:03.349Z,7.00
2022-08-19T08:12:40.253Z,9.90
2022-08-19T08:15:13.217Z,12.40
2022-08-19T08:17:49.357Z,11.40
2022-08-19T08:20:21.811Z,12.60
2022-08-19T08:25:38.752Z,10.20
2022-08-19T08:28:11.450Z,10.00
2022-08-19T08:30:49.257Z,11.20
2022-08-19T08:33:33.159Z,9.00
2022-08-19T08:36:06.881Z,11.10
2022-08-19T08:38:40.823Z,8.80
2022-08-19T08:41:21.337Z,8.70
2022-08-19T08:43:53.323Z,6.40
2022-08-19T08:46:47.553Z,6.60
2022-08-19T08:49:38.652Z,11.70
2022-08-19T08:52:22.950Z,14.60
2022-08-19T08:54:59.100Z,10.20
2022-08-19T08:57:37.696Z,10.10
2022-08-19T09:00:17.689Z,7.70
2022-08-19T09:02:50.507Z,9.20
2022-08-19T09:05:25.825Z,8.10
2022-08-19T09:08:07.094Z,6.50
2022-08-19T09:10:44.639Z,8.50
2022-08-19T09:13:51.484Z,15.40
2022-08-19T09:16:28.234Z,11.00
2022-08-19T09:19:03.468Z,11.50
2022-08-19T09:21:36.082Z,12.80
2022-08-19T09:24:10.808Z,11.70
2022-08-19T09:26:48.470Z,9.40
2022-08-19T09:29:24.453Z,7.40
2022-08-19T09:34:22.120Z,12.80
2022-08-19T09:36:54.937Z,11.20
2022-08-19T09:39:23.657Z,9.60
2022-08-19T09:41:54.297Z,7.40
2022-08-19T09:44:23.123Z,9.90
2022-08-19T09:46:52.585Z,12.70
2022-08-19T09:49:24.313Z,8.90
2022-08-19T09:51:57.709Z,9.70
2022-08-19T09:58:33.262Z,7.10
2022-08-19T10:01:03.473Z,9.80
2022-08-19T10:03:33.787Z,9.10
2022-08-19T10:06:05.309Z,8.30
2022-08-19T10:08:50.290Z,7.80
2022-08-19T10:11:28.162Z,11.20
2022-08-19T10:14:07.169Z,10.20
2022-08-19T10:16:39.778Z,8.70
2022-08-19T10:19:09.158Z,6.70
2022-08-19T10:21:38.859Z,7.70
2022-08-19T10:24:10.093Z,9.00
2022-08-19T10:26:46.563Z,12.20
2022-08-19T10:29:33.060Z,14.40
2022-08-19T10:32:09.784Z,7.80
2022-08-19T10:34:48.069Z,12.10
2022-08-19T10:37:23.835Z,11.10
2022-08-19T10:40:03.991Z,12.10
2022-08-19T10:42:33.226Z,7.90
2022-08-19T10:45:02.373Z,10.20
2022-08-19T10:47:36.018Z,6.40
2022-08-19T10:50:28.800Z,7.10
2022-08-19T10:53:00.097Z,8.40
2022-08-19T10:55:48.242Z,5.90
2022-08-19T10:58:24.057Z,6.30
2022-08-19T11:00:56.284Z,13.30
2022-08-19T11:03:26.720Z,8.80
2022-08-19T11:06:03.051Z,9.30
2022-08-19T11:08:32.970Z,9.10
2022-08-19T11:11:04.441Z,9.70
2022-08-19T11:13:36.920Z,7.00
2022-08-19T11:16:14.587Z,8.00
2022-08-19T11:18:49.922Z,9.90
2022-08-19T11:21:28.829Z,7.10
2022-08-19T11:24:00.014Z,11.40
2022-08-19T11:26:30.752Z,6.40
2022-08-19T11:29:00.424Z,7.50
2022-08-19T11:34:04.464Z,7.60
2022-08-19T11:36:35.340Z,11.40
2022-08-19T11:39:06.782Z,14.40
2022-08-19T11:41:36.759Z,9.50
2022-08-19T11:44:08.998Z,9.90
2022-08-19T11:46:39.379Z,8.30
2022-08-19T11:49:14.070Z,9.10
2022-08-19T11:51:45.946Z,11.40
2022-08-19T11:54:17.573Z,8.00
2022-08-19T11:56:51.071Z,9.10
2022-08-19T11:59:20.124Z,7.40
2022-08-19T12:01:50.246Z,10.10
2022-08-19T12:04:19.518Z,8.50
2022-08-19T12:06:49.494Z,8.80
2022-08-19T12:09:19.077Z,6.00
2022-08-19T12:11:49.906Z,10.70
2022-08-19T12:14:18.995Z,11.00
2022-08-19T12:19:22.283Z,5.60
2022-08-19T12:21:54.536Z,7.40
2022-08-19T12:24:25.712Z,6.20
2022-08-19T12:26:56.786Z,11.90
2022-08-19T12:29:32.156Z,8.80
2022-08-19T12:32:04.043Z,3.60
2022-08-19T12:34:34.311Z,7.60
2022-08-19T12:37:05.966Z,7.50
2022-08-19T12:39:43.103Z,15.30
2022-08-19T12:42:14.592Z,6.30
2022-08-19T12:44:44.936Z,12.20
2022-08-19T12:47:19.628Z,11.30
2022-08-19T12:49:54.622Z,8.40
2022-08-19T12:52:27.208Z,8.70
2022-08-19T12:54:58.180Z,6.10
2022-08-19T12:57:37.139Z,12.00
2022-08-19T13:00:32.783Z,7.20
2022-08-19T13:03:04.462Z,15.40
2022-08-19T13:05:35.820Z,8.50
2022-08-19T13:08:04.999Z,9.40
2022-08-19T13:10:36.903Z,15.90
2022-08-19T13:13:08.717Z,7.20
2022-08-19T13:15:43.472Z,11.30
2022-08-19T13:18:13.896Z,13.20
2022-08-19T13:20:43.269Z,26.00
2022-08-19T13:23:21.803Z,17.40
2022-08-19T13:26:06.561Z,11.80
2022-08-19T13:28:55.316Z,20.80
2022-08-19T13:31:44.579Z,13.30
2022-08-19T13:34:14.802Z,15.60
2022-08-19T13:36:44.003Z,22.70
2022-08-19T13:39:13.757Z,24.40
2022-08-19T13:41:50.123Z,16.90
2022-08-19T13:44:19.679Z,16.20
2022-08-19T13:46:50.000Z,17.20
2022-08-19T13:49:23.073Z,14.70
2022-08-19T13:51:51.923Z,20.90
2022-08-19T13:54:21.764Z,17.70
2022-08-19T13:59:19.219Z,22.90
2022-08-19T14:01:47.701Z,16.10
2022-08-19T14:04:16.463Z,17.50
2022-08-19T14:06:45.450Z,32.30
2022-08-19T14:09:14.040Z,20.90
2022-08-19T14:11:42.670Z,20.30
2022-08-19T14:14:16.238Z,24.40
2022-08-19T14:16:45.179Z,19.00
2022-08-19T14:19:14.094Z,18.00
2022-08-19T14:21:42.947Z,16.70
2022-08-19T14:24:11.595Z,16.80
2022-08-19T14:26:40.647Z,20.20
2022-08-19T14:29:09.211Z,16.10
2022-08-19T14:31:37.814Z,21.70
2022-08-19T14:34:06.637Z,20.40
2022-08-19T14:36:39.135Z,16.70
2022-08-19T14:39:11.059Z,21.30
2022-08-19T14:41:43.167Z,21.70
2022-08-19T14:44:16.229Z,16.70
2022-08-19T14:46:48.567Z,16.30
2022-08-19T14:49:20.265Z,18.50
2022-08-19T14:51:49.057Z,18.50
2022-08-19T14:54:19.114Z,16.40
2022-08-19T14:56:47.970Z,15.40
2022-08-19T14:59:17.333Z,17.60
2022-08-19T15:01:46.290Z,14.60
2022-08-19T15:04:15.345Z,17.90
2022-08-19T15:06:44.519Z,20.30
2022-08-19T15:09:13.172Z,16.40
2022-08-19T15:11:42.213Z,17.60
2022-08-19T15:14:11.445Z,19.40
2022-08-19T15:16:41.892Z,14.90
2022-08-19T15:19:11.439Z,23.20
2022-08-19T15:21:40.253Z,17.50
2022-08-19T15:24:10.443Z,17.20
2022-08-19T15:26:40.017Z,17.70
2022-08-19T15:29:09.609Z,15.60
2022-08-19T15:31:38.919Z,18.30
2022-08-19T15:34:08.660Z,21.10
2022-08-19T15:36:38.571Z,16.00
2022-08-19T15:39:12.031Z,18.50
2022-08-19T15:41:43.553Z,22.20
2022-08-19T15:44:19.322Z,17.20
2022-08-19T15:46:49.459Z,20.80
2022-08-19T15:49:19.862Z,23.00
2022-08-19T15:51:52.151Z,15.50
2022-08-19T15:54:22.291Z,18.80
2022-08-19T15:57:10.887Z,18.00
2022-08-19T16:00:01.575Z,15.20
2022-08-19T16:02:54.357Z,23.00
2022-08-19T16:05:48.202Z,17.20
2022-08-19T16:08:18.137Z,14.80
2022-08-19T16:13:16.273Z,22.30
2022-08-19T16:15:45.426Z,18.20
2022-08-19T16:18:14.231Z,17.70
2022-08-19T16:20:45.156Z,17.00
2022-08-19T16:23:14.498Z,19.10
2022-08-19T16:25:43.855Z,18.90
2022-08-19T16:28:13.188Z,17.50
2022-08-19T16:30:48.394Z,20.50
2022-08-19T16:33:22.860Z,14.30
2022-08-19T16:36:00.344Z,13.70
2022-08-19T16:38:38.231Z,14.90
2022-08-19T16:41:08.300Z,14.90
2022-08-19T16:43:39.625Z,16.40
2022-08-19T16:46:09.870Z,17.90
2022-08-19T16:51:14.313Z,17.30
2022-08-19T16:53:45.826Z,18.50
2022-08-19T16:56:15.878Z,16.50
2022-08-19T16:58:44.710Z,14.10
2022-08-19T17:01:14.682Z,19.60
2022-08-19T17:04:00.013Z,17.80
2022-08-19T17:06:51.672Z,16.00
2022-08-19T17:09:44.322Z,15.90
2022-08-19T17:12:38.020Z,13.30
2022-08-19T17:15:32.836Z,18.60
2022-08-19T17:18:31.660Z,16.60
2022-08-19T17:21:35.046Z,14.60
2022-08-19T17:24:28.333Z,12.30
2022-08-19T17:27:26.807Z,20.20
2022-08-19T17:30:25.166Z,15.30
2022-08-19T17:36:13.556Z,15.00
2022-08-19T17:42:05.206Z,15.00
2022-08-19T17:44:36.983Z,15.70
2022-08-19T17:47:06.526Z,16.10
2022-08-19T17:49:37.785Z,42.70
2022-08-19T17:52:10.049Z,19.10
2022-08-19T17:54:40.954Z,22.20
2022-08-19T17:57:10.993Z,19.10
2022-08-19T18:02:10.804Z,17.80
2022-08-19T18:04:43.396Z,15.70
2022-08-19T18:07:14.404Z,18.50
2022-08-19T18:09:49.453Z,20.40
2022-08-19T18:12:25.098Z,14.60
2022-08-19T18:14:54.304Z,18.10
2022-08-19T18:17:23.657Z,18.80
2022-08-19T18:19:53.256Z,18.70
2022-08-19T18:22:29.068Z,15.70
2022-08-19T18:24:59.095Z,18.60
2022-08-19T18:30:00.037Z,20.60
2022-08-19T18:32:34.916Z,19.20
2022-08-19T18:35:10.308Z,20.30
2022-08-19T18:37:40.540Z,19.10
2022-08-19T18:40:32.494Z,19.70
2022-08-19T18:43:11.613Z,23.30
2022-08-19T18:46:02.580Z,14.90
2022-08-19T18:48:50.233Z,19.50
2022-08-19T18:51:19.556Z,21.70
2022-08-19T18:53:49.058Z,15.70
2022-08-19T18:58:51.202Z,20.20
2022-08-19T19:03:55.255Z,22.10
2022-08-19T19:06:35.130Z,17.70
2022-08-19T19:09:04.956Z,18.30
2022-08-19T19:11:38.217Z,19.30
2022-08-19T19:14:23.016Z,17.30
2022-08-19T19:17:04.768Z,17.00
2022-08-19T19:19:34.768Z,17.70
2022-08-19T19:22:05.416Z,21.00
2022-08-19T19:24:34.615Z,18.90
2022-08-19T19:27:07.647Z,20.90
2022-08-19T19:29:37.624Z,19.20
2022-08-19T19:34:40.651Z,23.60
2022-08-19T19:37:10.144Z,25.00
2022-08-19T19:39:46.173Z,15.50
2022-08-19T19:42:20.336Z,22.80
2022-08-19T19:44:55.223Z,17.30
2022-08-19T19:47:25.048Z,17.40
2022-08-19T19:50:14.807Z,18.70
2022-08-19T19:52:46.854Z,18.50
2022-08-19T19:55:20.456Z,19.80
2022-08-19T19:57:50.319Z,19.40
2022-08-19T20:00:20.737Z,17.40
2022-08-19T20:02:51.295Z,21.80
2022-08-19T20:05:21.762Z,23.70
2022-08-19T20:08:11.480Z,19.30
2022-08-19T20:10:41.984Z,18.60
2022-08-19T20:13:15.911Z,22.70
2022-08-19T20:15:46.250Z,21.60
2022-08-19T20:18:16.235Z,23.10
2022-08-19T20:20:51.332Z,18.70
2022-08-19T20:23:22.960Z,24.40
2022-08-19T20:25:52.720Z,23.20
2022-08-19T20:28:24.007Z,18.00
2022-08-19T20:30:55.285Z,19.30
2022-08-19T20:35:53.670Z,23.10
2022-08-19T20:38:24.689Z,23.30
2022-08-19T20:40:53.379Z,21.20
2022-08-19T20:43:23.820Z,23.50
2022-08-19T20:45:53.412Z,23.50
2022-08-19T20:48:22.353Z,28.30
2022-08-19T20:50:51.994Z,24.10
2022-08-19T20:53:23.463Z,25.20
2022-08-19T20:55:52.352Z,24.60
2022-08-19T20:58:24.759Z,31.20
2022-08-19T21:00:58.592Z,31.50
2022-08-19T21:03:30.686Z,25.30
2022-08-19T21:05:59.992Z,27.00
2022-08-19T21:08:29.101Z,28.30
2022-08-19T21:10:59.324Z,25.80
2022-08-19T21:13:28.162Z,23.10
2022-08-19T21:15:57.732Z,26.30
2022-08-19T21:18:27.931Z,26.40
2022-08-19T21:20:56.727Z,25.80
2022-08-19T21:23:27.880Z,25.90
2022-08-19T21:25:58.929Z,25.20
2022-08-19T21:28:35.027Z,37.50
2022-08-19T21:31:07.427Z,25.10
2022-08-19T21:33:37.277Z,28.70
2022-08-19T21:36:06.837Z,29.30
2022-08-19T21:38:35.797Z,26.80
2022-08-19T21:41:06.573Z,25.80
2022-08-19T21:43:38.163Z,25.60
2022-08-19T21:46:07.856Z,26.60
2022-08-19T21:48:37.520Z,26.90
2022-08-19T21:51:06.492Z,32.80
2022-08-19T21:53:36.059Z,27.10
2022-08-19T21:56:06.769Z,24.40
2022-08-19T21:58:39.133Z,28.90
2022-08-19T22:01:08.376Z,28.60
2022-08-19T22:03:39.238Z,25.70
2022-08-19T22:06:08.882Z,27.00
2022-08-19T22:08:38.163Z,26.50
2022-08-19T22:11:06.703Z,25.10
2022-08-19T22:13:40.394Z,27.60
2022-08-19T22:16:10.738Z,25.50
2022-08-19T22:18:39.512Z,32.50
2022-08-19T22:21:11.889Z,26.00
2022-08-19T22:23:44.933Z,28.70
2022-08-19T22:26:19.246Z,27.00
2022-08-19T22:28:48.725Z,28.10
2022-08-19T22:31:19.161Z,25.10
2022-08-19T22:33:48.512Z,31.60
2022-08-19T22:36:18.185Z,25.80
2022-08-19T22:38:48.278Z,26.90
2022-08-19T22:43:47.069Z,26.90
2022-08-19T22:48:48.357Z,24.00
2022-08-19T22:51:49.124Z,25.20
2022-08-19T22:54:18.628Z,29.90
2022-08-19T22:56:48.520Z,26.00
2022-08-19T22:59:17.146Z,26.30
2022-08-19T23:01:47.115Z,27.20
2022-08-19T23:04:15.804Z,24.30
2022-08-19T23:06:47.880Z,30.40
2022-08-19T23:09:17.359Z,28.90
2022-08-19T23:11:48.206Z,23.50
2022-08-19T23:14:19.729Z,24.00
2022-08-19T23:16:51.371Z,25.20
2022-08-19T23:19:21.541Z,27.00
2022-08-19T23:21:52.969Z,24.90
2022-08-19T23:24:21.777Z,27.10
2022-08-19T23:27:09.993Z,24.90
2022-08-19T23:29:58.364Z,25.60
2022-08-19T23:32:27.474Z,25.00
2022-08-19T23:34:57.462Z,24.60
2022-08-19T23:37:29.355Z,27.50
2022-08-19T23:39:57.996Z,28.20
2022-08-19T23:42:26.703Z,31.00
2022-08-19T23:45:05.777Z,27.20
2022-08-19T23:47:36.012Z,31.20
2022-08-19T23:50:11.226Z,29.40
2022-08-19T23:52:47.779Z,29.80
2022-08-19T23:55:18.585Z,32.20
2022-08-19T23:57:48.383Z,29.60
